^^
Saratoga-Weather Station Historical Data
Daily Summary for January 20, 2020 Units:  Metric    English   Both
Daily Weekly Monthly Yearly Custom
  High: Low: Average:
Temperature: 7.5 °C -1.1 °C 3.7 °C
Dew Point: 5.4 °C -1.9 °C 1.8 °C
Humidity: 96% 71% 88%
Wind Speed: 11.3km/h 0km/h 1.7km/h
Wind Gust: 12.9km/h - -
Wind- - WSW
Pressure: 1036.2 hPa 1031.2 hPa -
Precipitation: 0.0 mm    
Historical Graphs
 
 
Tabular Data for January 20, 2020
Time Temperature Dew Point Pressure Wind Wind Speed Wind Gust Humidity Rainfall Rate (Hourly) solar
00:04 6.8 °C 5.4 °C 1031.2 hPa WNW 6.4 km/h 12.9 km/h 91% 0.0 mm 0 W/m2
00:09 6.8 °C 5.3 °C 1031.2 hPa West 4.7 km/h 9.7 km/h 90% 0.0 mm 0 W/m2
00:14 6.7 °C 5.2 °C 1031.2 hPa WNW 3.2 km/h 12.9 km/h 90% 0.0 mm 0 W/m2
00:19 6.6 °C 5.1 °C 1031.2 hPa West 4.7 km/h 12.9 km/h 90% 0.0 mm 0 W/m2
00:24 6.7 °C 5 °C 1031.5 hPa WNW 6.4 km/h 12.9 km/h 89% 0.0 mm 0 W/m2
00:29 6.7 °C 5 °C 1031.5 hPa WNW 4.7 km/h 11.3 km/h 89% 0.0 mm 0 W/m2
00:34 6.7 °C 4.9 °C 1031.5 hPa West 6.4 km/h 11.3 km/h 88% 0.0 mm 0 W/m2
00:39 6.7 °C 4.9 °C 1031.8 hPa West 6.4 km/h 11.3 km/h 88% 0.0 mm 0 W/m2
00:44 6.7 °C 4.9 °C 1031.8 hPa WNW 3.2 km/h 6.4 km/h 88% 0.0 mm 0 W/m2
00:49 6.7 °C 4.9 °C 1031.8 hPa WNW 11.1 km/h 11.3 km/h 88% 0.0 mm 0 W/m2
00:54 6.7 °C 4.9 °C 1031.8 hPa West 9.7 km/h 12.9 km/h 88% 0.0 mm 0 W/m2
00:59 6.6 °C 4.6 °C 1031.8 hPa WSW 4.7 km/h 12.9 km/h 87% 0.0 mm 0 W/m2
01:04 6.6 °C 4.4 °C 1031.8 hPa WNW 4.7 km/h 12.9 km/h 86% 0.0 mm 0 W/m2
01:09 6.4 °C 4.4 °C 1031.8 hPa West 4.7 km/h 9.7 km/h 87% 0.0 mm 0 W/m2
01:14 6.3 °C 4.3 °C 1032.2 hPa West 1.4 km/h 12.9 km/h 87% 0.0 mm 0 W/m2
01:19 6.2 °C 4.2 °C 1031.8 hPa West 1.4 km/h 3.2 km/h 87% 0.0 mm 0 W/m2
01:24 6.1 °C 4.1 °C 1032.2 hPa West 3.2 km/h 6.4 km/h 87% 0.0 mm 0 W/m2
01:29 5.9 °C 4.1 °C 1032.2 hPa WNW 1.4 km/h 3.2 km/h 88% 0.0 mm 0 W/m2
01:34 5.8 °C 4 °C 1032.2 hPa Calm     88% 0.0 mm 0 W/m2
01:39 5.7 °C 3.9 °C 1032.2 hPa WNW 1.4 km/h 3.2 km/h 88% 0.0 mm 0 W/m2
01:44 5.4 °C 3.7 °C 1032.2 hPa WNW 1.4 km/h 1.6 km/h 89% 0.0 mm 0 W/m2
01:49 5.3 °C 3.8 °C 1032.2 hPa WNW 3.2 km/h 3.2 km/h 90% 0.0 mm 0 W/m2
01:54 5.2 °C 3.7 °C 1032.2 hPa WNW 1.4 km/h 3.2 km/h 90% 0.0 mm 0 W/m2
01:59 5.1 °C 3.6 °C 1032.2 hPa West 3.2 km/h 4.8 km/h 90% 0.0 mm 0 W/m2
02:04 5.1 °C 3.8 °C 1032.2 hPa West 6.4 km/h 8 km/h 91% 0.0 mm 0 W/m2
02:09 5.1 °C 3.8 °C 1032.2 hPa WSW 4.7 km/h 6.4 km/h 91% 0.0 mm 0 W/m2
02:14 5.1 °C 3.8 °C 1032.2 hPa WSW 1.4 km/h 8 km/h 91% 0.0 mm 0 W/m2
02:19 5 °C 3.7 °C 1032.2 hPa WSW 4.7 km/h 8 km/h 91% 0.0 mm 0 W/m2
02:24 4.9 °C 3.6 °C 1032.2 hPa West 4.7 km/h 11.3 km/h 91% 0.0 mm 0 W/m2
02:29 4.9 °C 3.6 °C 1032.2 hPa West 6.4 km/h 9.7 km/h 91% 0.0 mm 0 W/m2
02:34 4.8 °C 3.5 °C 1032.2 hPa WSW 6.4 km/h 12.9 km/h 91% 0.0 mm 0 W/m2
02:39 4.8 °C 3.5 °C 1032.5 hPa WSW 4.7 km/h 9.7 km/h 91% 0.0 mm 0 W/m2
02:44 4.8 °C 3.5 °C 1032.5 hPa WNW 1.4 km/h 6.4 km/h 91% 0.0 mm 0 W/m2
02:49 4.8 °C 3.5 °C 1032.5 hPa West 1.4 km/h 9.7 km/h 91% 0.0 mm 0 W/m2
02:54 4.7 °C 3.4 °C 1032.2 hPa West 3.2 km/h 6.4 km/h 91% 0.0 mm 0 W/m2
02:59 4.7 °C 3.4 °C 1032.2 hPa Calm   9.7 km/h 91% 0.0 mm 0 W/m2
03:04 4.6 °C 3.3 °C 1032.2 hPa Calm   3.2 km/h 91% 0.0 mm 0 W/m2
03:10 4.4 °C 3.1 °C 1032.2 hPa Calm   3.2 km/h 91% 0.0 mm 0 W/m2
03:15 4.3 °C 3 °C 1032.2 hPa West 1.4 km/h 3.2 km/h 91% 0.0 mm 0 W/m2
03:20 4.2 °C 3 °C 1032.2 hPa West 1.4 km/h 3.2 km/h 92% 0.0 mm 0 W/m2
03:25 4 °C 2.8 °C 1032.5 hPa West 1.4 km/h 1.6 km/h 92% 0.0 mm 0 W/m2
03:30 3.9 °C 2.7 °C 1032.2 hPa West 1.4 km/h 3.2 km/h 92% 0.0 mm 0 W/m2
03:35 3.8 °C 2.6 °C 1032.5 hPa West 1.4 km/h 3.2 km/h 92% 0.0 mm 0 W/m2
03:40 3.7 °C 2.7 °C 1032.5 hPa West 1.4 km/h 4.8 km/h 93% 0.0 mm 0 W/m2
03:45 3.7 °C 2.7 °C 1032.2 hPa Calm   1.6 km/h 93% 0.0 mm 0 W/m2
03:50 3.6 °C 2.6 °C 1032.5 hPa WSW 3.2 km/h 6.4 km/h 93% 0.0 mm 0 W/m2
03:55 3.6 °C 2.6 °C 1032.5 hPa WSW 1.4 km/h 3.2 km/h 93% 0.0 mm 0 W/m2
04:00 3.5 °C 2.5 °C 1032.5 hPa WSW 1.4 km/h 6.4 km/h 93% 0.0 mm 0 W/m2
04:05 3.5 °C 2.6 °C 1032.5 hPa Calm   3.2 km/h 94% 0.0 mm 0 W/m2
04:10 3.5 °C 2.6 °C 1032.5 hPa WSW 1.4 km/h 3.2 km/h 94% 0.0 mm 0 W/m2
04:15 3.6 °C 2.7 °C 1032.5 hPa WSW 4.7 km/h 4.8 km/h 94% 0.0 mm 0 W/m2
04:20 3.5 °C 2.6 °C 1032.5 hPa West 3.2 km/h 3.2 km/h 94% 0.0 mm 0 W/m2
04:25 3.5 °C 2.6 °C 1032.5 hPa Calm   4.8 km/h 94% 0.0 mm 0 W/m2
04:30 3.5 °C 2.6 °C 1032.5 hPa Calm   4.8 km/h 94% 0.0 mm 0 W/m2
04:35 3.5 °C 2.6 °C 1032.5 hPa WSW 1.4 km/h 3.2 km/h 94% 0.0 mm 0 W/m2
04:40 3.5 °C 2.6 °C 1032.5 hPa West 1.4 km/h 4.8 km/h 94% 0.0 mm 0 W/m2
04:45 3.6 °C 2.7 °C 1032.5 hPa WSW 1.4 km/h 4.8 km/h 94% 0.0 mm 0 W/m2
04:50 3.7 °C 2.8 °C 1032.5 hPa West 3.2 km/h 6.4 km/h 94% 0.0 mm 0 W/m2
04:55 3.7 °C 2.7 °C 1032.5 hPa West 4.7 km/h 6.4 km/h 93% 0.0 mm 0 W/m2
05:00 3.8 °C 2.8 °C 1032.5 hPa SW 4.7 km/h 9.7 km/h 93% 0.0 mm 0 W/m2
05:05 3.8 °C 2.8 °C 1032.5 hPa WSW 1.4 km/h 8 km/h 93% 0.0 mm 0 W/m2
05:10 3.9 °C 2.9 °C 1032.5 hPa WNW 3.2 km/h 9.7 km/h 93% 0.0 mm 0 W/m2
05:15 3.9 °C 2.7 °C 1032.5 hPa WNW 3.2 km/h 4.8 km/h 92% 0.0 mm 0 W/m2
05:20 3.7 °C 2.5 °C 1032.8 hPa WNW 3.2 km/h 8 km/h 92% 0.0 mm 0 W/m2
05:25 3.4 °C 2.2 °C 1032.5 hPa WNW 4.7 km/h 4.8 km/h 92% 0.0 mm 0 W/m2
05:30 3.2 °C 2 °C 1032.8 hPa West 3.2 km/h 4.8 km/h 92% 0.0 mm 0 W/m2
05:35 3.1 °C 1.9 °C 1032.8 hPa West 1.4 km/h 3.2 km/h 92% 0.0 mm 0 W/m2
05:40 2.9 °C 1.9 °C 1032.8 hPa West 3.2 km/h 3.2 km/h 93% 0.0 mm 0 W/m2
05:45 2.8 °C 1.8 °C 1032.8 hPa West 1.4 km/h 3.2 km/h 93% 0.0 mm 0 W/m2
05:50 2.8 °C 1.8 °C 1032.8 hPa West 3.2 km/h 3.2 km/h 93% 0.0 mm 0 W/m2
05:55 2.7 °C 1.7 °C 1032.8 hPa Calm     93% 0.0 mm 0 W/m2
06:00 2.7 °C 1.8 °C 1032.8 hPa Calm     94% 0.0 mm 0 W/m2
06:05 2.7 °C 1.8 °C 1032.8 hPa Calm     94% 0.0 mm 0 W/m2
06:10 2.6 °C 1.7 °C 1032.8 hPa Calm     94% 0.0 mm 0 W/m2
06:15 2.6 °C 1.7 °C 1032.8 hPa Calm     94% 0.0 mm 0 W/m2
06:20 2.5 °C 1.6 °C 1032.8 hPa Calm     94% 0.0 mm 0 W/m2
06:25 2.5 °C 1.6 °C 1032.8 hPa Calm     94% 0.0 mm 0 W/m2
06:30 2.4 °C 1.5 °C 1032.8 hPa West 3.2 km/h 3.2 km/h 94% 0.0 mm 0 W/m2
06:35 2.4 °C 1.5 °C 1033.2 hPa ESE 4.7 km/h 4.8 km/h 94% 0.0 mm 0 W/m2
06:40 2.3 °C 1.4 °C 1033.2 hPa ESE 1.4 km/h 3.2 km/h 94% 0.0 mm 0 W/m2
06:45 2.3 °C 1.4 °C 1033.5 hPa Calm   1.6 km/h 94% 0.0 mm 0 W/m2
06:50 2.2 °C 1.5 °C 1033.5 hPa ESE 1.4 km/h 1.6 km/h 95% 0.0 mm 0 W/m2
06:55 2.2 °C 1.5 °C 1033.5 hPa Calm   1.6 km/h 95% 0.0 mm 0 W/m2
07:00 2.2 °C 1.5 °C 1033.5 hPa Calm     95% 0.0 mm 0 W/m2
07:05 2.2 °C 1.5 °C 1033.5 hPa SW 1.4 km/h 1.6 km/h 95% 0.0 mm 0 W/m2
07:10 2.4 °C 1.7 °C 1033.5 hPa West 4.7 km/h 8 km/h 95% 0.0 mm 0 W/m2
07:15 2.7 °C 2 °C 1033.5 hPa WSW 1.4 km/h 4.8 km/h 95% 0.0 mm 0 W/m2
07:20 2.8 °C 2.1 °C 1033.9 hPa Calm   8 km/h 95% 0.0 mm 0 W/m2
07:25 2.8 °C 2.1 °C 1033.9 hPa South 4.7 km/h 4.8 km/h 95% 0.0 mm 0 W/m2
07:30 2.7 °C 2 °C 1033.9 hPa SE 1.4 km/h 3.2 km/h 95% 0.0 mm 0 W/m2
07:35 2.5 °C 1.8 °C 1033.9 hPa Calm   3.2 km/h 95% 0.0 mm 0 W/m2
07:40 2.4 °C 1.7 °C 1033.9 hPa Calm   1.6 km/h 95% 0.0 mm 0 W/m2
07:45 2.4 °C 1.7 °C 1033.9 hPa Calm   3.2 km/h 95% 0.0 mm 0 W/m2
07:50 2.4 °C 1.7 °C 1033.9 hPa Calm   3.2 km/h 95% 0.0 mm 0 W/m2
07:55 2.3 °C 1.6 °C 1033.9 hPa Calm     95% 0.0 mm 0 W/m2
08:00 2.3 °C 1.6 °C 1033.9 hPa Calm   3.2 km/h 95% 0.0 mm 5 W/m2
08:05 2.3 °C 1.6 °C 1033.9 hPa Calm     95% 0.0 mm 9 W/m2
08:10 2.2 °C 1.5 °C 1034.2 hPa Calm     95% 0.0 mm 11 W/m2
08:15 2.2 °C 1.5 °C 1034.2 hPa SW 1.4 km/h 3.2 km/h 95% 0.0 mm 14 W/m2
08:20 2.2 °C 1.5 °C 1034.5 hPa Calm     95% 0.0 mm 16 W/m2
08:25 2.2 °C 1.5 °C 1034.5 hPa Calm   3.2 km/h 95% 0.0 mm 19 W/m2
08:30 2.2 °C 1.5 °C 1034.5 hPa Calm   1.6 km/h 95% 0.0 mm 23 W/m2
08:35 2.2 °C 1.5 °C 1034.5 hPa Calm     95% 0.0 mm 25 W/m2
08:40 2.3 °C 1.6 °C 1034.9 hPa Calm     95% 0.0 mm 33 W/m2
08:45 2.3 °C 1.6 °C 1034.9 hPa Calm   1.6 km/h 95% 0.0 mm 42 W/m2
08:50 2.3 °C 1.6 °C 1034.9 hPa Calm     95% 0.0 mm 42 W/m2
08:55 2.4 °C 1.7 °C 1034.9 hPa Calm     95% 0.0 mm 46 W/m2
09:00 2.4 °C 1.8 °C 1034.9 hPa Calm     96% 0.0 mm 53 W/m2
09:05 2.6 °C 2 °C 1034.9 hPa Calm     96% 0.0 mm 63 W/m2
09:10 2.7 °C 2.1 °C 1034.9 hPa East 3.2 km/h 6.4 km/h 96% 0.0 mm 62 W/m2
09:15 2.9 °C 2.3 °C 1034.9 hPa ESE 3.2 km/h 3.2 km/h 96% 0.0 mm 63 W/m2
09:20 3 °C 2.4 °C 1034.5 hPa ESE 1.4 km/h 6.4 km/h 96% 0.0 mm 56 W/m2
09:25 3.1 °C 2.5 °C 1034.5 hPa Calm     96% 0.0 mm 65 W/m2
09:30 3.2 °C 2.6 °C 1034.5 hPa Calm     96% 0.0 mm 56 W/m2
09:35 3.3 °C 2.7 °C 1034.9 hPa Calm     96% 0.0 mm 47 W/m2
09:40 3.4 °C 2.8 °C 1034.5 hPa Calm     96% 0.0 mm 40 W/m2
09:45 3.5 °C 2.9 °C 1034.9 hPa Calm     96% 0.0 mm 39 W/m2
09:50 3.6 °C 3 °C 1034.9 hPa WSW 3.2 km/h 3.2 km/h 96% 0.0 mm 35 W/m2
09:55 3.6 °C 3 °C 1034.9 hPa Calm   3.2 km/h 96% 0.0 mm 33 W/m2
10:00 3.7 °C 3.1 °C 1034.9 hPa Calm     96% 0.0 mm 33 W/m2
10:05 3.8 °C 3.2 °C 1034.9 hPa Calm   3.2 km/h 96% 0.0 mm 35 W/m2
10:10 3.9 °C 3.2 °C 1034.9 hPa Calm     95% 0.0 mm 39 W/m2
10:15 4 °C 3.3 °C 1034.9 hPa Calm     95% 0.0 mm 40 W/m2
10:21 4.1 °C 3.4 °C 1034.9 hPa Calm   3.2 km/h 95% 0.0 mm 44 W/m2
10:26 4.2 °C 3.3 °C 1035.2 hPa Calm     94% 0.0 mm 47 W/m2
10:31 4.3 °C 3.4 °C 1035.2 hPa Calm   3.2 km/h 94% 0.0 mm 46 W/m2
10:36 4.4 °C 3.5 °C 1035.6 hPa SW 1.4 km/h 3.2 km/h 94% 0.0 mm 60 W/m2
10:41 4.5 °C 3.6 °C 1035.6 hPa SW 1.4 km/h 1.6 km/h 94% 0.0 mm 65 W/m2
10:46 4.7 °C 3.8 °C 1035.6 hPa WSW 3.2 km/h 4.8 km/h 94% 0.0 mm 63 W/m2
10:51 4.9 °C 3.9 °C 1035.6 hPa NW 6.4 km/h 9.7 km/h 93% 0.0 mm 88 W/m2
10:56 5.2 °C 4 °C 1035.6 hPa WNW 1.4 km/h 4.8 km/h 92% 0.0 mm 105 W/m2
11:01 5.4 °C 3.9 °C 1035.6 hPa WSW 4.7 km/h 9.7 km/h 90% 0.0 mm 97 W/m2
11:06 5.5 °C 3.8 °C 1035.2 hPa WSW 1.4 km/h 6.4 km/h 89% 0.0 mm 49 W/m2
11:11 5.6 °C 3.9 °C 1035.2 hPa West 3.2 km/h 9.7 km/h 89% 0.0 mm 70 W/m2
11:16 5.6 °C 3.8 °C 1035.2 hPa West 3.2 km/h 8 km/h 88% 0.0 mm 56 W/m2
11:21 5.7 °C 3.9 °C 1035.6 hPa WNW 3.2 km/h 6.4 km/h 88% 0.0 mm 65 W/m2
11:26 5.7 °C 3.9 °C 1035.6 hPa West 4.7 km/h 4.8 km/h 88% 0.0 mm 53 W/m2
11:31 5.8 °C 3.8 °C 1035.2 hPa WNW 3.2 km/h 4.8 km/h 87% 0.0 mm 79 W/m2
11:36 5.9 °C 3.9 °C 1035.6 hPa West 4.7 km/h 6.4 km/h 87% 0.0 mm 67 W/m2
11:41 6 °C 3.8 °C 1035.6 hPa WSW 4.7 km/h 6.4 km/h 86% 0.0 mm 77 W/m2
11:46 6.1 °C 3.9 °C 1035.2 hPa West 1.4 km/h 6.4 km/h 86% 0.0 mm 76 W/m2
11:51 6.2 °C 4 °C 1035.2 hPa WSW 3.2 km/h 9.7 km/h 86% 0.0 mm 81 W/m2
11:56 6.2 °C 3.9 °C 1035.2 hPa WNW 4.7 km/h 4.8 km/h 85% 0.0 mm 83 W/m2
12:01 6.3 °C 4 °C 1035.2 hPa WSW 6.4 km/h 6.4 km/h 85% 0.0 mm 97 W/m2
12:06 6.4 °C 3.9 °C 1035.2 hPa WSW 4.7 km/h 9.7 km/h 84% 0.0 mm 137 W/m2
12:11 6.6 °C 3.9 °C 1035.2 hPa West 4.7 km/h 8 km/h 83% 0.0 mm 149 W/m2
12:16 6.7 °C 3.8 °C 1035.2 hPa WNW 1.4 km/h 4.8 km/h 82% 0.0 mm 130 W/m2
12:21 6.8 °C 3.8 °C 1035.2 hPa North 4.7 km/h 8 km/h 81% 0.0 mm 132 W/m2
12:26 6.9 °C 3.3 °C 1035.2 hPa Calm   9.7 km/h 78% 0.0 mm 125 W/m2
12:31 7.1 °C 3 °C 1035.2 hPa NW 1.4 km/h 4.8 km/h 75% 0.0 mm 142 W/m2
12:36 7.2 °C 2.7 °C 1035.2 hPa NE 1.4 km/h 6.4 km/h 73% 0.0 mm 149 W/m2
12:41 7.3 °C 2.4 °C 1035.2 hPa NNW 3.2 km/h 9.7 km/h 71% 0.0 mm 151 W/m2
12:46 7.4 °C 2.5 °C 1035.2 hPa NW 3.2 km/h 4.8 km/h 71% 0.0 mm 155 W/m2
12:51 7.4 °C 2.7 °C 1035.2 hPa ENE 3.2 km/h 6.4 km/h 72% 0.0 mm 144 W/m2
12:56 7.5 °C 3.2 °C 1035.2 hPa Calm   3.2 km/h 74% 0.0 mm 120 W/m2
13:01 7.5 °C 3.7 °C 1035.2 hPa WNW 3.2 km/h 3.2 km/h 77% 0.0 mm 91 W/m2
13:06 7.4 °C 3.3 °C 1035.2 hPa ESE 1.4 km/h 4.8 km/h 75% 0.0 mm 102 W/m2
13:11 7.4 °C 2.7 °C 1035.2 hPa WNW 3.2 km/h 6.4 km/h 72% 0.0 mm 116 W/m2
13:16 7.4 °C 3.4 °C 1035.2 hPa South 3.2 km/h 4.8 km/h 76% 0.0 mm 109 W/m2
13:21 7.3 °C 3.3 °C 1035.2 hPa Calm   1.6 km/h 76% 0.0 mm 128 W/m2
13:26 7.4 °C 3.6 °C 1035.2 hPa Calm     77% 0.0 mm 134 W/m2
13:31 7.4 °C 3.4 °C 1035.2 hPa ENE 3.2 km/h 3.2 km/h 76% 0.0 mm 130 W/m2
13:36 7.4 °C 3.1 °C 1035.2 hPa Calm   1.6 km/h 74% 0.0 mm 98 W/m2
13:41 7.4 °C 2.7 °C 1035.2 hPa WNW 6.4 km/h 11.3 km/h 72% 0.0 mm 83 W/m2
13:46 7.4 °C 2.7 °C 1035.2 hPa WNW 4.7 km/h 6.4 km/h 72% 0.0 mm 102 W/m2
13:51 7.4 °C 3.1 °C 1035.2 hPa WNW 3.2 km/h 6.4 km/h 74% 0.0 mm 113 W/m2
13:56 7.3 °C 3 °C 1035.2 hPa WNW 3.2 km/h 8 km/h 74% 0.0 mm 95 W/m2
14:01 7.2 °C 2.9 °C 1034.9 hPa WNW 11.3 km/h 11.3 km/h 74% 0.0 mm 97 W/m2
14:06 7.2 °C 3.1 °C 1034.9 hPa WNW 3.2 km/h 4.8 km/h 75% 0.0 mm 114 W/m2
14:11 7.1 °C 2.6 °C 1034.9 hPa SW 4.7 km/h 6.4 km/h 73% 0.0 mm 95 W/m2
14:16 7.1 °C 2.6 °C 1034.9 hPa West 3.2 km/h 6.4 km/h 73% 0.0 mm 79 W/m2
14:21 7.1 °C 2.8 °C 1034.9 hPa West 3.2 km/h 4.8 km/h 74% 0.0 mm 72 W/m2
14:26 7.1 °C 2.8 °C 1034.9 hPa WSW 4.7 km/h 6.4 km/h 74% 0.0 mm 86 W/m2
14:31 7 °C 2.5 °C 1034.9 hPa WNW 1.4 km/h 11.3 km/h 73% 0.0 mm 83 W/m2
14:36 6.9 °C 2.2 °C 1034.9 hPa West 3.2 km/h 4.8 km/h 72% 0.0 mm 76 W/m2
14:41 6.8 °C 2.1 °C 1034.9 hPa West 1.4 km/h 8 km/h 72% 0.0 mm 70 W/m2
14:46 6.8 °C 2.1 °C 1035.2 hPa WNW 4.7 km/h 4.8 km/h 72% 0.0 mm 56 W/m2
14:51 6.7 °C 2 °C 1034.9 hPa WSW 6.4 km/h 6.4 km/h 72% 0.0 mm 46 W/m2
14:56 6.6 °C 1.9 °C 1034.9 hPa West 4.7 km/h 4.8 km/h 72% 0.0 mm 42 W/m2
15:01 6.5 °C 1.8 °C 1034.9 hPa WSW 1.4 km/h 3.2 km/h 72% 0.0 mm 33 W/m2
15:06 6.4 °C 1.9 °C 1034.9 hPa West 3.2 km/h 4.8 km/h 73% 0.0 mm 26 W/m2
15:11 6.3 °C 1.8 °C 1034.9 hPa West 1.4 km/h 4.8 km/h 73% 0.0 mm 30 W/m2
15:16 6.2 °C 1.9 °C 1034.9 hPa Calm   1.6 km/h 74% 0.0 mm 28 W/m2
15:21 6.1 °C 2 °C 1034.5 hPa WSW 1.4 km/h 3.2 km/h 75% 0.0 mm 23 W/m2
15:26 6 °C 2.1 °C 1034.5 hPa Calm   1.6 km/h 76% 0.0 mm 25 W/m2
15:31 5.8 °C 2.1 °C 1034.5 hPa Calm   3.2 km/h 77% 0.0 mm 23 W/m2
15:36 5.7 °C 2.2 °C 1034.5 hPa Calm   1.6 km/h 78% 0.0 mm 21 W/m2
15:41 5.6 °C 1.9 °C 1034.5 hPa WSW 1.4 km/h 3.2 km/h 77% 0.0 mm 19 W/m2
15:46 5.4 °C 1.9 °C 1034.5 hPa Calm   1.6 km/h 78% 0.0 mm 18 W/m2
15:51 5.3 °C 1.8 °C 1034.5 hPa West 1.4 km/h 1.6 km/h 78% 0.0 mm 18 W/m2
15:56 5.3 °C 1.4 °C 1034.5 hPa West 3.2 km/h 3.2 km/h 76% 0.0 mm 14 W/m2
16:01 5.4 °C 1.5 °C 1034.9 hPa WSW 3.2 km/h 6.4 km/h 76% 0.0 mm 12 W/m2
16:06 5.4 °C 1.3 °C 1034.9 hPa WSW 1.4 km/h 3.2 km/h 75% 0.0 mm 12 W/m2
16:11 5.3 °C 1.2 °C 1034.9 hPa Calm   3.2 km/h 75% 0.0 mm 12 W/m2
16:16 5.3 °C 1.2 °C 1034.9 hPa West 3.2 km/h 4.8 km/h 75% 0.0 mm 12 W/m2
16:21 5.3 °C 1.2 °C 1034.9 hPa West 1.4 km/h 6.4 km/h 75% 0.0 mm 14 W/m2
16:26 5.3 °C 1.4 °C 1034.5 hPa West 1.4 km/h 1.6 km/h 76% 0.0 mm 14 W/m2
16:31 5.1 °C 1.2 °C 1034.9 hPa Calm   3.2 km/h 76% 0.0 mm 9 W/m2
16:36 5 °C 1.3 °C 1034.9 hPa Calm   3.2 km/h 77% 0.0 mm 7 W/m2
16:41 4.9 °C 1.2 °C 1034.9 hPa Calm   1.6 km/h 77% 0.0 mm 5 W/m2
16:46 4.8 °C 1.3 °C 1034.9 hPa Calm   1.6 km/h 78% 0.0 mm 5 W/m2
16:51 4.7 °C 1.2 °C 1034.9 hPa West 1.4 km/h 4.8 km/h 78% 0.0 mm 0 W/m2
16:56 4.6 °C 0.9 °C 1035.2 hPa WSW 6.4 km/h 6.4 km/h 77% 0.0 mm 0 W/m2
17:01 4.6 °C 0.9 °C 1035.2 hPa WSW 8 km/h 8 km/h 77% 0.0 mm 0 W/m2
17:06 4.7 °C 0.8 °C 1034.9 hPa WSW 1.4 km/h 4.8 km/h 76% 0.0 mm 0 W/m2
17:11 4.6 °C 0.7 °C 1035.2 hPa West 1.4 km/h 8 km/h 76% 0.0 mm 0 W/m2
17:16 4.5 °C 0.6 °C 1035.2 hPa West 4.7 km/h 4.8 km/h 76% 0.0 mm 0 W/m2
17:22 4.5 °C 0.6 °C 1035.2 hPa West 4.7 km/h 8 km/h 76% 0.0 mm 0 W/m2
17:27 4.6 °C 0.6 °C 1035.2 hPa West 1.4 km/h 4.8 km/h 75% 0.0 mm 0 W/m2
17:32 4.6 °C 0.6 °C 1035.2 hPa SW 1.4 km/h 9.7 km/h 75% 0.0 mm 0 W/m2
17:37 4.5 °C 0.5 °C 1035.2 hPa West 1.4 km/h 4.8 km/h 75% 0.0 mm 0 W/m2
17:42 4.4 °C 0.5 °C 1035.2 hPa Calm   1.6 km/h 76% 0.0 mm 0 W/m2
17:47 4.2 °C 0.9 °C 1035.2 hPa Calm     79% 0.0 mm 0 W/m2
17:52 3.9 °C 0.6 °C 1035.2 hPa Calm     79% 0.0 mm 0 W/m2
17:57 3.7 °C 0.7 °C 1035.2 hPa Calm     81% 0.0 mm 0 W/m2
18:02 3.3 °C 0.5 °C 1035.2 hPa West 1.4 km/h 3.2 km/h 82% 0.0 mm 0 W/m2
18:07 3.1 °C 0.5 °C 1035.2 hPa Calm   1.6 km/h 83% 0.0 mm 0 W/m2
18:12 2.8 °C 0.4 °C 1035.2 hPa Calm     84% 0.0 mm 0 W/m2
18:17 2.7 °C 0.3 °C 1035.2 hPa Calm     84% 0.0 mm 0 W/m2
18:22 2.4 °C 0.1 °C 1035.2 hPa Calm   1.6 km/h 85% 0.0 mm 0 W/m2
18:27 2.3 °C 0.2 °C 1035.2 hPa Calm     86% 0.0 mm 0 W/m2
18:32 2.2 °C 0.1 °C 1035.2 hPa Calm     86% 0.0 mm 0 W/m2
18:37 2.1 °C 0 °C 1035.2 hPa Calm     86% 0.0 mm 0 W/m2
18:42 1.9 °C 0 °C 1035.2 hPa Calm     87% 0.0 mm 0 W/m2
18:47 1.8 °C -0.1 °C 1035.2 hPa Calm     87% 0.0 mm 0 W/m2
18:52 1.7 °C -0.2 °C 1035.2 hPa Calm     87% 0.0 mm 0 W/m2
18:57 1.6 °C -0.2 °C 1035.6 hPa Calm     88% 0.0 mm 0 W/m2
19:02 1.5 °C -0.3 °C 1035.6 hPa Calm     88% 0.0 mm 0 W/m2
19:07 1.4 °C -0.2 °C 1035.6 hPa Calm     89% 0.0 mm 0 W/m2
19:12 1.3 °C -0.3 °C 1035.6 hPa West 1.4 km/h 1.6 km/h 89% 0.0 mm 0 W/m2
19:17 1.3 °C -0.3 °C 1035.6 hPa Calm   1.6 km/h 89% 0.0 mm 0 W/m2
19:22 1.2 °C -0.3 °C 1035.6 hPa Calm   1.6 km/h 90% 0.0 mm 0 W/m2
19:27 1.2 °C -0.3 °C 1035.6 hPa Calm     90% 0.0 mm 0 W/m2
19:32 1.2 °C -0.3 °C 1035.6 hPa Calm   1.6 km/h 90% 0.0 mm 0 W/m2
19:37 1.2 °C -0.3 °C 1035.6 hPa Calm     90% 0.0 mm 0 W/m2
19:42 1.2 °C -0.3 °C 1035.9 hPa Calm     90% 0.0 mm 0 W/m2
19:47 1.2 °C -0.3 °C 1035.9 hPa Calm     90% 0.0 mm 0 W/m2
19:52 1.2 °C -0.3 °C 1035.9 hPa Calm     90% 0.0 mm 0 W/m2
19:57 1.1 °C -0.4 °C 1035.9 hPa Calm     90% 0.0 mm 0 W/m2
20:02 1.1 °C -0.4 °C 1035.9 hPa Calm     90% 0.0 mm 0 W/m2
20:07 0.9 °C -0.4 °C 1035.9 hPa Calm     91% 0.0 mm 0 W/m2
20:12 0.9 °C -0.4 °C 1035.9 hPa Calm     91% 0.0 mm 0 W/m2
20:17 0.9 °C -0.4 °C 1035.9 hPa Calm     91% 0.0 mm 0 W/m2
20:22 0.8 °C -0.5 °C 1035.9 hPa Calm     91% 0.0 mm 0 W/m2
20:27 0.7 °C -0.6 °C 1035.9 hPa Calm     91% 0.0 mm 0 W/m2
20:32 0.6 °C -0.7 °C 1035.9 hPa Calm     91% 0.0 mm 0 W/m2
20:37 0.5 °C -0.8 °C 1035.9 hPa Calm     91% 0.0 mm 0 W/m2
20:42 0.4 °C -0.9 °C 1035.9 hPa Calm     91% 0.0 mm 0 W/m2
20:47 0.4 °C -0.9 °C 1035.9 hPa Calm     91% 0.0 mm 0 W/m2
20:52 0.3 °C -0.8 °C 1035.9 hPa Calm     92% 0.0 mm 0 W/m2
20:57 0.3 °C -0.8 °C 1035.9 hPa Calm     92% 0.0 mm 0 W/m2
21:02 0.2 °C -0.9 °C 1036.2 hPa Calm     92% 0.0 mm 0 W/m2
21:07 0.2 °C -0.9 °C 1036.2 hPa Calm     92% 0.0 mm 0 W/m2
21:12 0.1 °C -1 °C 1036.2 hPa Calm     92% 0.0 mm 0 W/m2
21:17 0 °C -1.1 °C 1036.2 hPa Calm     92% 0.0 mm 0 W/m2
21:22 -0.1 °C -1.2 °C 1036.2 hPa Calm     92% 0.0 mm 0 W/m2
21:27 -0.1 °C -1.1 °C 1036.2 hPa Calm     93% 0.0 mm 0 W/m2
21:32 -0.2 °C -1.3 °C 1035.9 hPa Calm     92% 0.0 mm 0 W/m2
21:37 -0.2 °C -1.3 °C 1035.9 hPa Calm     92% 0.0 mm 0 W/m2
21:42 -0.3 °C -1.3 °C 1035.9 hPa Calm     93% 0.0 mm 0 W/m2
21:47 -0.3 °C -1.3 °C 1035.9 hPa Calm     93% 0.0 mm 0 W/m2
21:52 -0.3 °C -1.3 °C 1035.9 hPa Calm     93% 0.0 mm 0 W/m2
21:57 -0.3 °C -1.3 °C 1035.9 hPa Calm     93% 0.0 mm 0 W/m2
22:02 -0.4 °C -1.4 °C 1035.9 hPa Calm     93% 0.0 mm 0 W/m2
22:07 -0.4 °C -1.4 °C 1035.9 hPa Calm     93% 0.0 mm 0 W/m2
22:12 -0.6 °C -1.6 °C 1035.9 hPa Calm     93% 0.0 mm 0 W/m2
22:17 -0.6 °C -1.6 °C 1035.9 hPa Calm     93% 0.0 mm 0 W/m2
22:22 -0.6 °C -1.6 °C 1035.9 hPa Calm     93% 0.0 mm 0 W/m2
22:27 -0.6 °C -1.4 °C 1035.9 hPa Calm     94% 0.0 mm 0 W/m2
22:32 -0.6 °C -1.4 °C 1035.9 hPa Calm     94% 0.0 mm 0 W/m2
22:37 -0.6 °C -1.4 °C 1035.9 hPa Calm     94% 0.0 mm 0 W/m2
22:42 -0.6 °C -1.4 °C 1035.9 hPa Calm     94% 0.0 mm 0 W/m2
22:47 -0.7 °C -1.5 °C 1035.9 hPa Calm     94% 0.0 mm 0 W/m2
22:52 -0.7 °C -1.5 °C 1035.9 hPa Calm     94% 0.0 mm 0 W/m2
22:57 -0.7 °C -1.5 °C 1035.9 hPa Calm     94% 0.0 mm 0 W/m2
23:02 -0.8 °C -1.6 °C 1035.9 hPa Calm     94% 0.0 mm 0 W/m2
23:07 -0.8 °C -1.6 °C 1035.9 hPa Calm     94% 0.0 mm 0 W/m2
23:12 -0.8 °C -1.6 °C 1035.9 hPa Calm     94% 0.0 mm 0 W/m2
23:17 -0.8 °C -1.6 °C 1035.9 hPa Calm     94% 0.0 mm 0 W/m2
23:22 -0.8 °C -1.6 °C 1035.9 hPa Calm     94% 0.0 mm 0 W/m2
23:27 -0.8 °C -1.6 °C 1035.9 hPa Calm     94% 0.0 mm 0 W/m2
23:32 -0.8 °C -1.6 °C 1035.9 hPa Calm     94% 0.0 mm 0 W/m2
23:37 -0.9 °C -1.7 °C 1035.9 hPa Calm     94% 0.0 mm 0 W/m2
23:42 -1 °C -1.8 °C 1035.9 hPa Calm     94% 0.0 mm 0 W/m2
23:47 -1.1 °C -1.9 °C 1035.9 hPa Calm     94% 0.0 mm 0 W/m2
23:52 -1.1 °C -1.9 °C 1035.9 hPa Calm     94% 0.0 mm 0 W/m2
23:57 -1.1 °C -1.9 °C 1035.9 hPa Calm     94% 0.0 mm 0 W/m2
Juneau County Weather
Compliments of Weather Underground - 4 mb